createdAt,value
2023-01-09T00:01:50.110Z,5.88
2023-01-09T00:04:16.663Z,4.28
2023-01-09T00:06:53.654Z,4.97
2023-01-09T00:09:21.340Z,5.95
2023-01-09T00:11:48.213Z,10.82
2023-01-09T00:14:15.281Z,6.97
2023-01-09T00:16:41.728Z,8.23
2023-01-09T00:19:08.111Z,5.82
2023-01-09T00:21:34.546Z,9.95
2023-01-09T00:24:00.829Z,7.32
2023-01-09T00:26:27.226Z,8.98
2023-01-09T00:28:54.174Z,8.57
2023-01-09T00:31:20.726Z,6.47
2023-01-09T00:33:59.614Z,6.87
2023-01-09T00:36:25.959Z,7.57
2023-01-09T00:38:52.471Z,10.75
2023-01-09T00:41:20.597Z,7.03
2023-01-09T00:43:55.389Z,9.02
2023-01-09T00:46:24.624Z,5.88
2023-01-09T00:48:51.190Z,8.05
2023-01-09T00:51:19.647Z,9.32
2023-01-09T00:53:46.855Z,5.65
2023-01-09T00:56:14.843Z,7.10
2023-01-09T00:58:41.298Z,5.88
2023-01-09T01:01:07.660Z,7.53
2023-01-09T01:03:34.089Z,4.78
2023-01-09T01:06:19.201Z,6.10
2023-01-09T01:08:46.091Z,4.15
2023-01-09T01:11:13.053Z,3.50
2023-01-09T01:13:39.847Z,4.65
2023-01-09T01:16:07.245Z,4.50
2023-01-09T01:18:33.762Z,6.35
2023-01-09T01:21:00.099Z,7.35
2023-01-09T01:23:26.402Z,6.72
2023-01-09T01:25:52.686Z,5.30
2023-01-09T01:28:19.485Z,4.00
2023-01-09T01:30:45.835Z,4.45
2023-01-09T01:33:12.739Z,6.45
2023-01-09T01:35:39.030Z,5.47
2023-01-09T01:38:05.504Z,6.47
2023-01-09T01:40:32.106Z,5.25
2023-01-09T01:42:58.747Z,6.50
2023-01-09T01:45:29.012Z,4.67
2023-01-09T01:48:00.033Z,4.38
2023-01-09T01:50:29.093Z,3.83
2023-01-09T01:53:09.048Z,4.28
2023-01-09T01:55:36.696Z,4.07
2023-01-09T01:58:04.627Z,3.22
2023-01-09T02:00:32.687Z,3.97
2023-01-09T02:03:00.761Z,5.75
2023-01-09T02:05:27.195Z,3.25
2023-01-09T02:07:53.552Z,3.28
2023-01-09T02:10:23.416Z,3.67
2023-01-09T02:12:50.436Z,4.60
2023-01-09T02:15:17.828Z,4.75
2023-01-09T02:17:49.986Z,5.20
2023-01-09T02:20:19.453Z,5.50
2023-01-09T02:22:48.703Z,2.17
2023-01-09T02:25:33.835Z,11.25
2023-01-09T02:28:15.730Z,2.40
2023-01-09T02:30:42.136Z,3.75
2023-01-09T02:33:11.578Z,4.60
2023-01-09T02:35:52.304Z,4.65
2023-01-09T02:38:24.759Z,3.58
2023-01-09T02:41:01.976Z,5.43
2023-01-09T02:43:30.314Z,3.20
2023-01-09T02:45:56.690Z,2.97
2023-01-09T02:48:23.069Z,5.28
2023-01-09T02:51:09.446Z,7.53
2023-01-09T02:53:51.278Z,4.40
2023-01-09T02:56:17.662Z,4.28
2023-01-09T02:58:50.371Z,3.13
2023-01-09T03:01:22.587Z,6.45
2023-01-09T03:03:52.312Z,4.35
2023-01-09T03:06:18.588Z,5.68
2023-01-09T03:08:47.558Z,5.28
2023-01-09T03:11:13.949Z,4.25
2023-01-09T03:13:46.180Z,5.85
2023-01-09T03:16:14.697Z,8.27
2023-01-09T03:18:41.943Z,5.18
2023-01-09T03:21:09.072Z,3.50
2023-01-09T03:23:47.407Z,3.72
2023-01-09T03:26:13.946Z,8.38
2023-01-09T03:28:40.398Z,14.25
2023-01-09T03:31:06.752Z,4.88
2023-01-09T03:33:33.235Z,7.07
2023-01-09T03:35:59.570Z,8.20
2023-01-09T03:38:25.937Z,7.63
2023-01-09T03:40:52.290Z,4.90
2023-01-09T03:43:18.682Z,5.38
2023-01-09T03:45:45.054Z,6.00
2023-01-09T03:48:11.400Z,4.03
2023-01-09T03:50:37.754Z,5.70
2023-01-09T03:53:04.506Z,5.40
2023-01-09T03:55:30.834Z,4.50
2023-01-09T03:57:57.441Z,6.07
2023-01-09T04:00:23.733Z,4.28
2023-01-09T04:02:50.228Z,6.68
2023-01-09T04:05:16.724Z,3.83
2023-01-09T04:07:43.084Z,4.78
2023-01-09T04:10:09.770Z,5.13
2023-01-09T04:12:36.082Z,3.30
2023-01-09T04:15:02.413Z,5.45
2023-01-09T04:17:28.913Z,4.85
2023-01-09T04:19:55.275Z,3.78
2023-01-09T04:22:22.613Z,7.63
2023-01-09T04:24:48.919Z,9.27
2023-01-09T04:27:15.299Z,7.63
2023-01-09T04:29:41.909Z,5.67
2023-01-09T04:32:08.372Z,4.32
2023-01-09T04:34:34.692Z,10.13
2023-01-09T04:37:01.080Z,7.60
2023-01-09T04:39:27.378Z,4.88
2023-01-09T04:41:53.830Z,8.68
2023-01-09T04:44:21.730Z,8.32
2023-01-09T04:46:49.331Z,6.47
2023-01-09T04:51:41.953Z,5.82
2023-01-09T04:54:08.321Z,6.50
2023-01-09T04:56:35.078Z,8.85
2023-01-09T04:59:01.674Z,7.78
2023-01-09T05:01:28.423Z,7.38
2023-01-09T05:03:54.920Z,7.60
2023-01-09T05:06:21.268Z,9.45
2023-01-09T05:08:47.613Z,7.60
2023-01-09T05:11:13.942Z,7.65
2023-01-09T05:13:40.287Z,7.38
2023-01-09T05:16:06.780Z,6.15
2023-01-09T05:18:33.128Z,9.00
2023-01-09T05:20:59.433Z,12.70
2023-01-09T05:23:25.840Z,10.13
2023-01-09T05:25:52.179Z,8.18
2023-01-09T05:28:18.649Z,5.45
2023-01-09T05:30:44.964Z,9.32
2023-01-09T05:33:11.298Z,7.82
2023-01-09T05:35:37.605Z,9.55
2023-01-09T05:38:04.045Z,14.82
2023-01-09T05:40:38.575Z,6.50
2023-01-09T05:43:06.278Z,10.20
2023-01-09T05:45:32.622Z,8.50
2023-01-09T05:47:58.931Z,10.13
2023-01-09T05:50:25.523Z,8.15
2023-01-09T05:52:52.859Z,7.57
2023-01-09T05:55:19.202Z,10.65
2023-01-09T05:57:45.522Z,6.15
2023-01-09T06:00:12.374Z,8.27
2023-01-09T06:02:38.768Z,7.55
2023-01-09T06:05:05.307Z,9.52
2023-01-09T06:07:31.617Z,14.80
2023-01-09T06:09:57.942Z,6.10
2023-01-09T06:12:24.327Z,4.93
2023-01-09T06:14:51.672Z,8.43
2023-01-09T06:17:18.091Z,13.18
2023-01-09T06:19:44.756Z,5.82
2023-01-09T06:22:11.152Z,8.50
2023-01-09T06:24:37.594Z,7.05
2023-01-09T06:27:04.073Z,7.32
2023-01-09T06:29:30.527Z,6.80
2023-01-09T06:31:56.948Z,6.85
2023-01-09T06:34:23.383Z,6.70
2023-01-09T06:36:49.750Z,10.50
2023-01-09T06:39:16.059Z,7.78
2023-01-09T06:41:42.435Z,7.05
2023-01-09T06:44:08.767Z,6.05
2023-01-09T06:46:35.080Z,9.40
2023-01-09T06:49:01.444Z,8.05
2023-01-09T06:51:27.752Z,7.35
2023-01-09T06:53:54.136Z,6.25
2023-01-09T06:56:20.491Z,12.68
2023-01-09T06:58:46.850Z,7.65
2023-01-09T07:01:13.227Z,5.68
2023-01-09T07:03:39.737Z,5.60
2023-01-09T07:06:06.169Z,5.07
2023-01-09T07:08:32.674Z,8.07
2023-01-09T07:10:58.971Z,5.50
2023-01-09T07:13:25.283Z,10.98
2023-01-09T07:15:53.640Z,7.35
2023-01-09T07:18:20.364Z,8.38
2023-01-09T07:20:46.691Z,8.70
2023-01-09T07:23:13.173Z,6.32
2023-01-09T07:25:40.058Z,9.50
2023-01-09T07:28:06.384Z,8.68
2023-01-09T07:30:33.431Z,6.88
2023-01-09T07:33:00.395Z,7.25
2023-01-09T07:35:27.878Z,8.88
2023-01-09T07:37:54.258Z,7.45
2023-01-09T07:40:20.817Z,10.05
2023-01-09T07:42:47.205Z,8.80
2023-01-09T07:45:13.607Z,9.63
2023-01-09T07:47:41.715Z,10.65
2023-01-09T07:50:08.793Z,7.80
2023-01-09T07:52:35.286Z,5.63
2023-01-09T07:55:01.952Z,8.93
2023-01-09T07:57:29.881Z,10.07
2023-01-09T07:59:56.377Z,7.97
2023-01-09T08:02:22.833Z,6.13
2023-01-09T08:04:49.208Z,6.75
2023-01-09T08:07:15.578Z,11.35
2023-01-09T08:09:41.902Z,16.73
2023-01-09T08:12:08.283Z,5.82
2023-01-09T08:14:35.932Z,7.47
2023-01-09T08:17:04.300Z,5.97
2023-01-09T08:19:30.741Z,10.07
2023-01-09T08:21:57.125Z,8.25
2023-01-09T08:24:23.489Z,8.52
2023-01-09T08:26:50.891Z,7.63
2023-01-09T08:29:18.325Z,6.63
2023-01-09T08:31:44.830Z,9.88
2023-01-09T08:34:11.247Z,10.18
2023-01-09T08:36:37.860Z,11.43
2023-01-09T08:39:04.228Z,7.93
2023-01-09T08:41:49.106Z,11.13
2023-01-09T08:44:37.256Z,8.88
2023-01-09T08:47:07.773Z,15.43
2023-01-09T08:49:35.087Z,17.92
2023-01-09T08:52:01.704Z,11.05
2023-01-09T08:54:31.218Z,7.53
2023-01-09T08:56:58.997Z,7.00
2023-01-09T09:01:52.650Z,10.45
2023-01-09T09:04:19.152Z,15.00
2023-01-09T09:06:45.906Z,10.95
2023-01-09T09:09:12.588Z,24.80
2023-01-09T09:11:39.934Z,8.47
2023-01-09T09:14:26.261Z,12.23
2023-01-09T09:16:53.171Z,15.43
2023-01-09T09:19:20.030Z,5.32
2023-01-09T09:21:46.468Z,6.15
2023-01-09T09:24:12.812Z,7.55
2023-01-09T09:26:39.267Z,5.85
2023-01-09T09:29:05.763Z,7.18
2023-01-09T09:31:32.190Z,6.55
2023-01-09T09:33:58.826Z,8.95
2023-01-09T09:36:25.159Z,9.90
2023-01-09T09:38:53.853Z,8.38
2023-01-09T09:41:41.790Z,12.65
2023-01-09T09:44:39.591Z,7.30
2023-01-09T09:47:23.639Z,10.13
2023-01-09T09:50:09.804Z,8.48
2023-01-09T09:52:45.695Z,9.93
2023-01-09T09:55:16.384Z,7.00
2023-01-09T09:57:47.925Z,11.05
2023-01-09T10:00:19.464Z,11.23
2023-01-09T10:02:50.509Z,13.52
2023-01-09T10:05:49.714Z,9.00
2023-01-09T10:08:23.580Z,12.32
2023-01-09T10:10:54.292Z,7.18
2023-01-09T10:13:46.635Z,9.60
2023-01-09T10:16:31.831Z,11.32
2023-01-09T10:19:19.432Z,8.60
2023-01-09T10:21:45.862Z,7.85
2023-01-09T10:24:31.091Z,8.95
2023-01-09T10:26:58.197Z,9.00
2023-01-09T10:29:33.620Z,6.90
2023-01-09T10:32:18.771Z,7.97
2023-01-09T10:35:11.601Z,8.50
2023-01-09T10:37:40.268Z,7.70
2023-01-09T10:40:15.662Z,11.27
2023-01-09T10:42:54.269Z,9.88
2023-01-09T10:45:29.778Z,6.85
2023-01-09T10:48:21.861Z,7.47
2023-01-09T10:50:49.399Z,7.95
2023-01-09T10:55:44.863Z,3.08
2023-01-09T10:58:12.527Z,7.68
2023-01-09T11:00:41.369Z,8.13
2023-01-09T11:03:12.160Z,5.18
2023-01-09T11:05:38.552Z,6.22
2023-01-09T11:08:27.217Z,13.00
2023-01-09T11:10:55.119Z,8.13
2023-01-09T11:13:21.879Z,10.23
2023-01-09T11:16:00.541Z,7.82
2023-01-09T11:18:34.404Z,7.00
2023-01-09T11:21:19.605Z,7.78
2023-01-09T11:23:45.929Z,10.00
2023-01-09T11:26:22.040Z,10.35
2023-01-09T11:29:04.266Z,9.65
2023-01-09T11:31:31.065Z,5.82
2023-01-09T11:33:58.601Z,7.68
2023-01-09T11:36:28.290Z,5.00
2023-01-09T11:38:58.659Z,3.03
2023-01-09T11:41:26.810Z,2.72
2023-01-09T11:43:55.710Z,5.57
2023-01-09T11:46:31.040Z,3.65
2023-01-09T11:48:58.700Z,2.67
2023-01-09T11:51:29.081Z,2.88
2023-01-09T11:54:02.279Z,5.22
2023-01-09T11:56:30.900Z,4.82
2023-01-09T11:58:59.283Z,2.63
2023-01-09T12:01:43.953Z,4.03
2023-01-09T12:04:30.095Z,3.97
2023-01-09T12:07:27.961Z,4.05
2023-01-09T12:10:12.055Z,3.15
2023-01-09T12:12:50.767Z,5.78
2023-01-09T12:15:20.193Z,8.98
2023-01-09T12:17:58.995Z,5.95
2023-01-09T12:20:38.710Z,6.38
2023-01-09T12:23:17.531Z,7.30
2023-01-09T12:25:44.212Z,8.60
2023-01-09T12:28:16.377Z,8.43
2023-01-09T12:30:56.594Z,9.00
2023-01-09T12:33:36.867Z,13.65
2023-01-09T12:36:05.987Z,7.20
2023-01-09T12:38:40.124Z,8.82
2023-01-09T12:41:18.072Z,10.10
2023-01-09T12:43:47.529Z,7.93
2023-01-09T12:46:26.451Z,6.03
2023-01-09T12:49:11.673Z,6.68
2023-01-09T12:51:55.717Z,7.13
2023-01-09T12:54:26.390Z,5.22
2023-01-09T12:57:00.420Z,5.30
2023-01-09T12:59:33.842Z,7.95
2023-01-09T13:02:12.952Z,11.98
2023-01-09T13:04:42.111Z,6.63
2023-01-09T13:07:15.911Z,6.05
2023-01-09T13:09:54.683Z,10.40
2023-01-09T13:12:23.065Z,5.20
2023-01-09T13:14:52.487Z,6.35
2023-01-09T13:17:22.130Z,5.03
2023-01-09T13:19:48.480Z,2.75
2023-01-09T13:22:18.306Z,5.93
2023-01-09T13:25:03.149Z,7.28
2023-01-09T13:27:32.964Z,4.78
2023-01-09T13:30:15.458Z,8.90
2023-01-09T13:33:00.721Z,10.07
2023-01-09T13:35:27.244Z,4.68
2023-01-09T13:37:53.718Z,12.02
2023-01-09T13:40:19.971Z,10.27
2023-01-09T13:42:58.597Z,4.40
2023-01-09T13:45:26.270Z,8.20
2023-01-09T13:48:17.593Z,9.55
2023-01-09T13:50:45.341Z,6.90
2023-01-09T13:53:17.731Z,5.50
2023-01-09T13:55:59.783Z,8.82
2023-01-09T13:58:31.969Z,8.98
2023-01-09T14:00:58.793Z,7.05
2023-01-09T14:03:31.359Z,11.73
2023-01-09T14:05:57.676Z,11.60
2023-01-09T14:08:28.989Z,7.85
2023-01-09T14:10:57.849Z,13.07
2023-01-09T14:13:26.313Z,9.23
2023-01-09T14:16:03.187Z,9.45
2023-01-09T14:18:31.352Z,9.98
2023-01-09T14:23:53.421Z,6.18
2023-01-09T14:26:24.459Z,10.48
2023-01-09T14:28:50.877Z,5.88
2023-01-09T14:31:33.091Z,9.10
2023-01-09T14:34:31.003Z,8.70
2023-01-09T14:36:59.543Z,6.15
2023-01-09T14:39:27.094Z,10.18
2023-01-09T14:44:45.605Z,7.05
2023-01-09T14:47:20.986Z,12.17
2023-01-09T14:49:51.874Z,8.70
2023-01-09T14:52:23.345Z,11.73
2023-01-09T14:54:50.605Z,10.77
2023-01-09T14:57:27.511Z,11.27
2023-01-09T15:00:01.475Z,11.48
2023-01-09T15:02:30.026Z,17.23
2023-01-09T15:04:59.550Z,8.60
2023-01-09T15:07:31.053Z,10.20
2023-01-09T15:10:00.495Z,9.65
2023-01-09T15:12:27.234Z,8.80
2023-01-09T15:14:55.831Z,12.23
2023-01-09T15:17:34.247Z,6.30
2023-01-09T15:20:01.804Z,11.43
2023-01-09T15:24:55.452Z,12.00
2023-01-09T15:27:23.356Z,9.90
2023-01-09T15:30:14.539Z,7.63
2023-01-09T15:32:43.288Z,5.90
2023-01-09T15:35:13.340Z,7.47
2023-01-09T15:37:40.393Z,11.45
2023-01-09T15:40:08.041Z,8.57
2023-01-09T15:42:57.105Z,9.52
2023-01-09T15:45:27.485Z,7.28
2023-01-09T15:47:54.711Z,12.48
2023-01-09T15:50:27.644Z,16.77
2023-01-09T15:52:54.648Z,6.90
2023-01-09T15:55:26.333Z,11.00
2023-01-09T15:57:53.528Z,13.70
2023-01-09T16:00:28.773Z,12.50
2023-01-09T16:03:10.888Z,9.98
2023-01-09T16:05:41.192Z,9.23
2023-01-09T16:08:22.084Z,13.13
2023-01-09T16:11:10.982Z,7.72
2023-01-09T16:13:39.458Z,10.15
2023-01-09T16:16:06.379Z,9.85
2023-01-09T16:18:35.438Z,8.70
2023-01-09T16:21:23.971Z,8.95
2023-01-09T16:24:00.737Z,11.10
2023-01-09T16:26:40.411Z,11.63
2023-01-09T16:29:25.384Z,8.63
2023-01-09T16:31:58.016Z,11.90
2023-01-09T16:34:24.590Z,8.57
2023-01-09T16:36:50.969Z,13.07
2023-01-09T16:39:17.409Z,11.73
2023-01-09T16:42:03.007Z,7.05
2023-01-09T16:44:29.381Z,7.18
2023-01-09T16:46:56.021Z,10.90
2023-01-09T16:49:23.596Z,8.53
2023-01-09T16:54:16.465Z,11.50
2023-01-09T16:56:43.802Z,12.13
2023-01-09T16:59:14.258Z,16.80
2023-01-09T17:01:41.586Z,9.30
2023-01-09T17:04:12.124Z,10.63
2023-01-09T17:06:39.077Z,15.18
2023-01-09T17:09:05.525Z,11.18
2023-01-09T17:11:32.242Z,13.13
2023-01-09T17:13:59.345Z,11.32
2023-01-09T17:16:25.852Z,11.15
2023-01-09T17:18:52.220Z,14.60
2023-01-09T17:21:23.083Z,13.38
2023-01-09T17:24:09.651Z,19.23
2023-01-09T17:26:55.624Z,14.65
2023-01-09T17:29:21.999Z,14.38
2023-01-09T17:31:48.292Z,15.18
2023-01-09T17:34:14.608Z,18.05
2023-01-09T17:36:41.036Z,12.50
2023-01-09T17:39:07.534Z,16.75
2023-01-09T17:41:33.937Z,17.58
2023-01-09T17:44:00.368Z,19.63
2023-01-09T17:46:31.028Z,26.42
2023-01-09T17:48:58.879Z,22.60
2023-01-09T17:51:25.970Z,28.05
2023-01-09T17:53:52.449Z,17.30
2023-01-09T17:56:19.991Z,17.50
2023-01-09T18:01:16.521Z,14.00
2023-01-09T18:03:43.352Z,15.90
2023-01-09T18:06:10.424Z,21.45
2023-01-09T18:08:36.844Z,20.15
2023-01-09T18:11:08.074Z,24.65
2023-01-09T18:13:34.426Z,22.92
2023-01-09T18:16:01.092Z,19.80
2023-01-09T18:18:30.562Z,15.02
2023-01-09T18:20:57.059Z,16.10
2023-01-09T18:23:23.900Z,18.95
2023-01-09T18:25:50.271Z,17.35
2023-01-09T18:28:16.864Z,21.98
2023-01-09T18:30:45.008Z,21.30
2023-01-09T18:33:12.212Z,21.25
2023-01-09T18:35:38.846Z,14.25
2023-01-09T18:38:05.186Z,23.50
2023-01-09T18:40:33.117Z,13.70
2023-01-09T18:42:59.757Z,24.17
2023-01-09T18:45:26.333Z,18.87
2023-01-09T18:47:52.677Z,16.70
2023-01-09T18:50:19.249Z,15.68
2023-01-09T18:52:45.649Z,20.38
2023-01-09T18:55:11.979Z,21.17
2023-01-09T18:57:38.347Z,19.08
2023-01-09T19:00:05.004Z,19.70
2023-01-09T19:02:31.232Z,25.60
2023-01-09T19:04:57.501Z,17.95
2023-01-09T19:07:24.005Z,27.58
2023-01-09T19:09:50.552Z,20.90
2023-01-09T19:12:16.807Z,19.05
2023-01-09T19:14:43.063Z,18.77
2023-01-09T19:17:09.339Z,13.90
2023-01-09T19:19:35.761Z,19.40
2023-01-09T19:22:02.132Z,22.38
2023-01-09T19:24:28.540Z,17.48
2023-01-09T19:26:54.910Z,24.33
2023-01-09T19:29:21.263Z,18.80
2023-01-09T19:31:48.682Z,20.13
2023-01-09T19:34:16.026Z,22.30
2023-01-09T19:36:47.269Z,14.70
2023-01-09T19:39:14.092Z,17.92
2023-01-09T19:41:40.481Z,24.50
2023-01-09T19:44:06.744Z,17.42
2023-01-09T19:46:33.672Z,20.05
2023-01-09T19:49:04.437Z,27.88
2023-01-09T19:51:31.327Z,33.15
2023-01-09T19:56:27.222Z,19.52
2023-01-09T19:58:54.568Z,17.85
2023-01-09T20:01:25.177Z,21.70
2023-01-09T20:03:51.893Z,23.13
2023-01-09T20:06:22.337Z,21.13
2023-01-09T20:08:49.273Z,15.63
2023-01-09T20:11:15.839Z,16.45
2023-01-09T20:13:42.650Z,17.63
2023-01-09T20:16:13.902Z,15.23
2023-01-09T20:18:40.856Z,19.42
2023-01-09T20:21:07.229Z,18.13
2023-01-09T20:23:34.153Z,21.75
2023-01-09T20:26:01.148Z,20.38
2023-01-09T20:28:27.581Z,16.58
2023-01-09T20:30:54.059Z,27.92
2023-01-09T20:33:20.899Z,21.02
2023-01-09T20:35:47.312Z,18.98
2023-01-09T20:38:13.727Z,17.27
2023-01-09T20:40:43.803Z,18.95
2023-01-09T20:43:12.309Z,13.73
2023-01-09T20:45:39.451Z,15.52
2023-01-09T20:48:05.954Z,15.10
2023-01-09T20:50:33.092Z,12.77
2023-01-09T20:52:59.398Z,15.88
2023-01-09T20:55:25.724Z,18.60
2023-01-09T20:57:52.080Z,23.92
2023-01-09T21:00:18.426Z,12.65
2023-01-09T21:02:44.829Z,12.40
2023-01-09T21:05:11.153Z,9.27
2023-01-09T21:07:37.627Z,12.18
2023-01-09T21:10:04.377Z,9.98
2023-01-09T21:12:37.674Z,6.78
2023-01-09T21:15:05.351Z,10.18
2023-01-09T21:17:32.883Z,9.63
2023-01-09T21:22:25.477Z,11.25
2023-01-09T21:24:51.812Z,8.27
2023-01-09T21:27:18.871Z,12.73
2023-01-09T21:29:45.679Z,11.82
2023-01-09T21:32:12.094Z,10.93
2023-01-09T21:34:38.492Z,15.27
2023-01-09T21:37:04.780Z,9.90
2023-01-09T21:39:31.262Z,12.57
2023-01-09T21:42:20.907Z,12.60
2023-01-09T21:45:05.730Z,14.10
2023-01-09T21:47:33.059Z,12.15
2023-01-09T21:49:59.396Z,12.55
2023-01-09T21:52:25.663Z,17.15
2023-01-09T21:54:52.192Z,15.30
2023-01-09T21:57:18.709Z,13.65
2023-01-09T21:59:45.015Z,12.80
2023-01-09T22:02:11.806Z,13.05
2023-01-09T22:04:38.492Z,16.17
2023-01-09T22:07:04.937Z,13.40
2023-01-09T22:09:31.317Z,17.45
2023-01-09T22:11:57.827Z,11.05
2023-01-09T22:14:24.148Z,19.23
2023-01-09T22:16:50.603Z,18.73
2023-01-09T22:19:19.670Z,16.08
2023-01-09T22:21:46.331Z,16.00
2023-01-09T22:24:13.510Z,21.67
2023-01-09T22:26:39.796Z,14.75
2023-01-09T22:29:06.102Z,13.63
2023-01-09T22:31:39.570Z,17.65
2023-01-09T22:34:06.143Z,14.65
2023-01-09T22:36:32.634Z,19.52
2023-01-09T22:38:59.747Z,27.48
2023-01-09T22:41:27.459Z,28.25
2023-01-09T22:43:53.768Z,15.15
2023-01-09T22:46:20.252Z,15.98
2023-01-09T22:48:46.761Z,20.25
2023-01-09T22:51:14.625Z,23.60
2023-01-09T22:53:41.082Z,19.25
2023-01-09T22:56:10.664Z,16.00
2023-01-09T22:58:36.945Z,21.95
2023-01-09T23:01:03.912Z,18.60
2023-01-09T23:03:30.247Z,18.23
2023-01-09T23:06:10.658Z,20.20
2023-01-09T23:08:37.035Z,15.60
2023-01-09T23:11:04.672Z,16.17
2023-01-09T23:15:57.156Z,18.00
2023-01-09T23:18:23.830Z,20.05
2023-01-09T23:20:54.023Z,19.03
2023-01-09T23:23:21.041Z,12.68
2023-01-09T23:25:48.415Z,20.23
2023-01-09T23:28:14.669Z,16.00
2023-01-09T23:30:41.008Z,17.35
2023-01-09T23:33:07.277Z,14.85
2023-01-09T23:35:33.585Z,17.95
2023-01-09T23:37:59.865Z,24.90
2023-01-09T23:40:26.257Z,19.25
2023-01-09T23:43:10.807Z,14.63
2023-01-09T23:45:38.470Z,16.38
2023-01-09T23:48:05.816Z,17.33
2023-01-09T23:50:32.273Z,19.88
2023-01-09T23:52:58.600Z,14.77
2023-01-09T23:55:25.199Z,13.40
2023-01-09T23:57:54.403Z,14.85
